createdAt,value
2022-08-26T00:01:54.074Z,9.67
2022-08-26T00:04:23.652Z,7.20
2022-08-26T00:06:52.543Z,6.73
2022-08-26T00:09:20.686Z,8.20
2022-08-26T00:11:51.081Z,7.50
2022-08-26T00:14:19.219Z,8.03
2022-08-26T00:16:48.806Z,8.13
2022-08-26T00:19:17.979Z,10.53
2022-08-26T00:21:48.661Z,8.40
2022-08-26T00:24:17.599Z,7.77
2022-08-26T00:26:45.699Z,7.50
2022-08-26T00:29:15.834Z,8.10
2022-08-26T00:31:45.257Z,8.57
2022-08-26T00:34:15.240Z,7.37
2022-08-26T00:36:44.382Z,7.77
2022-08-26T00:39:12.488Z,8.17
2022-08-26T00:41:42.755Z,8.10
2022-08-26T00:44:11.503Z,7.53
2022-08-26T00:46:46.449Z,8.90
2022-08-26T00:49:19.247Z,6.60
2022-08-26T00:51:51.767Z,8.33
2022-08-26T00:54:22.204Z,9.40
2022-08-26T00:56:56.066Z,7.67
2022-08-26T00:59:25.331Z,7.57
2022-08-26T01:01:55.730Z,8.53
2022-08-26T01:04:26.037Z,7.97
2022-08-26T01:06:55.757Z,8.77
2022-08-26T01:09:24.678Z,9.40
2022-08-26T01:11:57.421Z,9.03
2022-08-26T01:14:30.631Z,8.20
2022-08-26T01:17:01.978Z,8.80
2022-08-26T01:19:43.491Z,8.83
2022-08-26T01:22:16.896Z,8.43
2022-08-26T01:24:47.257Z,8.17
2022-08-26T01:27:22.019Z,9.53
2022-08-26T01:29:52.906Z,7.70
2022-08-26T01:32:25.783Z,7.57
2022-08-26T01:34:54.343Z,8.47
2022-08-26T01:37:28.395Z,8.53
2022-08-26T01:39:58.127Z,7.10
2022-08-26T01:42:28.535Z,7.17
2022-08-26T01:45:02.610Z,7.70
2022-08-26T01:47:33.216Z,6.87
2022-08-26T01:50:05.379Z,6.37
2022-08-26T01:52:36.895Z,6.83
2022-08-26T01:55:08.033Z,7.20
2022-08-26T01:57:37.610Z,8.27
2022-08-26T02:00:09.616Z,6.07
2022-08-26T02:02:40.551Z,6.37
2022-08-26T02:05:16.884Z,7.20
2022-08-26T02:07:46.020Z,8.13
2022-08-26T02:10:16.470Z,6.93
2022-08-26T02:12:47.902Z,6.93
2022-08-26T02:15:16.388Z,7.70
2022-08-26T02:17:48.215Z,7.20
2022-08-26T02:20:23.323Z,7.93
2022-08-26T02:22:51.920Z,8.50
2022-08-26T02:25:26.660Z,8.30
2022-08-26T02:27:56.750Z,7.63
2022-08-26T02:30:27.349Z,9.10
2022-08-26T02:32:56.602Z,9.00
2022-08-26T02:35:25.520Z,8.63
2022-08-26T02:37:54.608Z,8.27
2022-08-26T02:40:26.544Z,7.30
2022-08-26T02:42:55.864Z,8.00
2022-08-26T02:45:26.290Z,7.77
2022-08-26T02:47:56.304Z,7.87
2022-08-26T02:50:25.230Z,8.20
2022-08-26T02:52:53.570Z,7.77
2022-08-26T02:55:24.695Z,7.57
2022-08-26T02:57:53.198Z,8.80
2022-08-26T03:00:21.575Z,7.47
2022-08-26T03:02:51.940Z,8.13
2022-08-26T03:05:22.085Z,8.07
2022-08-26T03:07:52.750Z,7.33
2022-08-26T03:10:25.974Z,8.27
2022-08-26T03:12:54.189Z,7.97
2022-08-26T03:15:22.469Z,7.80
2022-08-26T03:17:50.690Z,8.10
2022-08-26T03:20:19.342Z,8.90
2022-08-26T03:22:47.831Z,8.73
2022-08-26T03:25:18.415Z,8.33
2022-08-26T03:27:48.122Z,9.20
2022-08-26T03:30:35.454Z,9.30
2022-08-26T03:33:03.588Z,8.87
2022-08-26T03:35:33.099Z,7.97
2022-08-26T03:38:03.329Z,8.60
2022-08-26T03:40:33.805Z,8.47
2022-08-26T03:43:03.870Z,8.47
2022-08-26T03:45:32.261Z,7.80
2022-08-26T03:48:00.594Z,8.40
2022-08-26T03:50:31.114Z,8.87
2022-08-26T03:53:03.209Z,8.63
2022-08-26T03:55:33.416Z,9.73
2022-08-26T03:58:02.071Z,9.00
2022-08-26T04:00:32.450Z,8.23
2022-08-26T04:03:02.755Z,9.20
2022-08-26T04:05:31.279Z,9.53
2022-08-26T04:07:59.403Z,9.87
2022-08-26T04:10:28.983Z,10.60
2022-08-26T04:12:59.004Z,8.60
2022-08-26T04:15:28.074Z,9.83
2022-08-26T04:17:57.789Z,10.93
2022-08-26T04:20:26.386Z,10.17
2022-08-26T04:22:54.826Z,9.80
2022-08-26T04:25:24.214Z,9.50
2022-08-26T04:27:53.041Z,10.60
2022-08-26T04:30:21.336Z,10.63
2022-08-26T04:32:49.830Z,11.10
2022-08-26T04:35:25.467Z,10.37
2022-08-26T04:37:55.394Z,9.80
2022-08-26T04:40:24.069Z,10.27
2022-08-26T04:42:54.037Z,9.70
2022-08-26T04:45:22.857Z,11.47
2022-08-26T04:47:54.734Z,10.10
2022-08-26T04:50:26.515Z,10.20
2022-08-26T04:52:55.384Z,10.57
2022-08-26T04:55:37.259Z,9.67
2022-08-26T04:58:10.414Z,10.13
2022-08-26T05:00:39.936Z,9.90
2022-08-26T05:03:10.634Z,9.53
2022-08-26T05:05:42.507Z,8.43
2022-08-26T05:08:11.362Z,9.23
2022-08-26T05:10:41.298Z,8.37
2022-08-26T05:13:11.117Z,8.53
2022-08-26T05:15:40.002Z,8.60
2022-08-26T05:18:10.513Z,8.73
2022-08-26T05:20:43.047Z,9.73
2022-08-26T05:23:11.154Z,8.80
2022-08-26T05:25:41.491Z,9.90
2022-08-26T05:28:10.196Z,10.77
2022-08-26T05:30:38.672Z,9.63
2022-08-26T05:33:07.084Z,8.47
2022-08-26T05:35:35.730Z,9.33
2022-08-26T05:38:12.782Z,8.20
2022-08-26T05:40:44.467Z,8.73
2022-08-26T05:43:14.110Z,8.23
2022-08-26T05:45:46.247Z,9.00
2022-08-26T05:48:16.671Z,8.73
2022-08-26T05:50:46.622Z,8.40
2022-08-26T05:53:18.501Z,8.53
2022-08-26T05:55:52.616Z,9.57
2022-08-26T05:58:23.114Z,9.43
2022-08-26T06:00:59.029Z,8.10
2022-08-26T06:03:28.065Z,9.20
2022-08-26T06:05:56.404Z,9.53
2022-08-26T06:08:26.241Z,9.53
2022-08-26T06:10:58.080Z,9.10
2022-08-26T06:13:30.364Z,10.00
2022-08-26T06:16:01.586Z,10.00
2022-08-26T06:18:32.782Z,9.43
2022-08-26T06:21:01.425Z,9.37
2022-08-26T06:23:48.288Z,8.50
2022-08-26T06:26:17.618Z,9.70
2022-08-26T06:28:45.950Z,8.67
2022-08-26T06:31:14.699Z,8.40
2022-08-26T06:33:43.552Z,10.23
2022-08-26T06:36:17.430Z,10.33
2022-08-26T06:38:49.162Z,8.70
2022-08-26T06:41:20.976Z,8.47
2022-08-26T06:43:49.649Z,9.60
2022-08-26T06:46:19.816Z,8.20
2022-08-26T06:48:48.262Z,9.60
2022-08-26T06:51:18.659Z,7.67
2022-08-26T06:53:50.463Z,8.03
2022-08-26T06:56:21.504Z,8.70
2022-08-26T06:58:49.930Z,8.37
2022-08-26T07:01:19.784Z,9.00
2022-08-26T07:03:50.486Z,8.37
2022-08-26T07:06:19.692Z,9.63
2022-08-26T07:08:49.631Z,9.07
2022-08-26T07:11:18.992Z,9.97
2022-08-26T07:13:47.731Z,8.73
2022-08-26T07:16:18.084Z,9.73
2022-08-26T07:18:48.519Z,9.70
2022-08-26T07:21:18.409Z,9.17
2022-08-26T07:23:47.176Z,9.80
2022-08-26T07:26:20.064Z,9.60
2022-08-26T07:28:50.623Z,8.20
2022-08-26T07:31:24.693Z,8.57
2022-08-26T07:33:53.306Z,9.60
2022-08-26T07:36:23.115Z,9.10
2022-08-26T07:38:51.911Z,9.90
2022-08-26T07:41:27.108Z,9.07
2022-08-26T07:43:56.138Z,10.57
2022-08-26T07:46:29.903Z,9.10
2022-08-26T07:49:00.093Z,9.27
2022-08-26T07:51:29.114Z,10.17
2022-08-26T07:53:57.408Z,9.63
2022-08-26T07:56:27.425Z,9.13
2022-08-26T07:58:55.507Z,8.63
2022-08-26T08:01:26.828Z,9.40
2022-08-26T08:03:56.734Z,7.63
2022-08-26T08:06:28.160Z,8.53
2022-08-26T08:08:57.153Z,8.50
2022-08-26T08:11:28.772Z,8.10
2022-08-26T08:13:57.095Z,8.47
2022-08-26T08:16:26.272Z,8.50
2022-08-26T08:18:54.977Z,8.00
2022-08-26T08:21:24.511Z,7.87
2022-08-26T08:23:53.417Z,7.83
2022-08-26T08:26:24.717Z,8.70
2022-08-26T08:28:56.048Z,9.00
2022-08-26T08:31:54.327Z,8.20
2022-08-26T08:34:14.132Z,8.20
2022-08-26T08:36:46.279Z,8.40
2022-08-26T08:39:14.983Z,8.60
2022-08-26T08:41:54.850Z,8.07
2022-08-26T08:47:03.514Z,8.13
2022-08-26T08:49:33.678Z,8.70
2022-08-26T08:52:06.427Z,7.77
2022-08-26T08:54:34.642Z,8.77
2022-08-26T08:57:10.956Z,8.90
2022-08-26T08:59:53.309Z,8.10
2022-08-26T09:02:28.329Z,9.50
2022-08-26T09:05:10.505Z,9.07
2022-08-26T09:07:49.398Z,10.40
2022-08-26T09:10:32.182Z,8.53
2022-08-26T09:13:02.609Z,9.03
2022-08-26T09:15:40.810Z,9.63
2022-08-26T09:18:18.894Z,9.77
2022-08-26T09:20:53.720Z,8.43
2022-08-26T09:23:21.923Z,9.00
2022-08-26T09:25:52.193Z,7.97
2022-08-26T09:28:23.491Z,7.87
2022-08-26T09:31:09.277Z,7.37
2022-08-26T09:33:40.231Z,7.67
2022-08-26T09:36:26.261Z,7.30
2022-08-26T09:38:55.221Z,7.67
2022-08-26T09:41:27.351Z,6.77
2022-08-26T09:44:15.638Z,7.77
2022-08-26T09:46:53.503Z,7.20
2022-08-26T09:49:35.708Z,7.80
2022-08-26T09:52:15.451Z,8.17
2022-08-26T09:54:46.108Z,8.20
2022-08-26T09:57:26.141Z,7.67
2022-08-26T09:59:54.584Z,9.00
2022-08-26T10:02:47.491Z,8.23
2022-08-26T10:05:19.228Z,8.40
2022-08-26T10:07:51.764Z,8.00
2022-08-26T10:10:24.585Z,7.50
2022-08-26T10:13:04.291Z,8.87
2022-08-26T10:15:48.618Z,8.57
2022-08-26T10:18:25.170Z,8.90
2022-08-26T10:21:03.773Z,7.90
2022-08-26T10:23:37.964Z,8.60
2022-08-26T10:26:12.851Z,7.77
2022-08-26T10:28:47.475Z,9.50
2022-08-26T10:31:28.983Z,9.03
2022-08-26T10:34:00.756Z,10.33
2022-08-26T10:37:14.547Z,8.77
2022-08-26T10:39:46.267Z,10.23
2022-08-26T10:42:23.552Z,9.57
2022-08-26T10:44:58.619Z,8.90
2022-08-26T10:47:33.841Z,10.33
2022-08-26T10:50:04.611Z,9.53
2022-08-26T10:52:48.077Z,9.13
2022-08-26T10:55:25.518Z,9.40
2022-08-26T10:58:00.526Z,9.33
2022-08-26T11:00:56.074Z,9.10
2022-08-26T11:03:34.391Z,9.10
2022-08-26T11:06:24.990Z,9.23
2022-08-26T11:08:54.321Z,9.43
2022-08-26T11:11:46.730Z,9.17
2022-08-26T11:14:53.339Z,8.63
2022-08-26T11:18:00.134Z,8.97
2022-08-26T11:20:39.195Z,8.53
2022-08-26T11:23:50.531Z,9.10
2022-08-26T11:26:35.622Z,9.90
2022-08-26T11:29:12.146Z,9.70
2022-08-26T11:31:56.853Z,10.17
2022-08-26T11:34:59.194Z,9.60
2022-08-26T11:37:34.325Z,11.70
2022-08-26T11:40:09.602Z,11.13
2022-08-26T11:42:43.178Z,11.47
2022-08-26T11:45:23.755Z,9.93
2022-08-26T11:47:52.342Z,9.27
2022-08-26T11:50:23.472Z,9.87
2022-08-26T11:52:53.988Z,8.00
2022-08-26T11:55:24.338Z,7.90
2022-08-26T11:57:55.208Z,7.47
2022-08-26T12:00:26.493Z,6.63
2022-08-26T12:02:55.672Z,7.03
2022-08-26T12:05:29.536Z,6.97
2022-08-26T12:08:06.749Z,7.63
2022-08-26T12:10:36.601Z,7.40
2022-08-26T12:13:06.284Z,7.80
2022-08-26T12:15:36.485Z,8.17
2022-08-26T12:18:29.332Z,7.87
2022-08-26T12:21:01.255Z,7.97
2022-08-26T12:23:42.177Z,6.67
2022-08-26T12:26:21.017Z,7.30
2022-08-26T12:28:51.779Z,7.07
2022-08-26T12:31:33.234Z,6.33
2022-08-26T12:34:04.137Z,7.57
2022-08-26T12:36:36.299Z,7.30
2022-08-26T12:39:10.595Z,6.93
2022-08-26T12:41:49.667Z,6.80
2022-08-26T12:44:53.756Z,7.10
2022-08-26T12:47:35.133Z,5.90
2022-08-26T12:50:18.126Z,5.77
2022-08-26T12:52:57.494Z,6.43
2022-08-26T12:55:36.505Z,6.20
2022-08-26T12:58:25.171Z,6.47
2022-08-26T13:00:55.055Z,6.30
2022-08-26T13:03:43.267Z,6.37
2022-08-26T13:06:28.009Z,6.70
2022-08-26T13:08:59.030Z,6.70
2022-08-26T13:11:31.945Z,5.83
2022-08-26T13:14:07.189Z,5.43
2022-08-26T13:16:36.414Z,6.00
2022-08-26T13:19:10.338Z,6.00
2022-08-26T13:21:44.732Z,6.87
2022-08-26T13:24:16.186Z,7.70
2022-08-26T13:26:46.714Z,6.03
2022-08-26T13:29:16.885Z,6.13
2022-08-26T13:31:46.730Z,6.53
2022-08-26T13:34:18.137Z,5.83
2022-08-26T13:36:46.511Z,5.20
2022-08-26T13:39:15.192Z,5.70
2022-08-26T13:41:43.644Z,5.40
2022-08-26T13:44:11.955Z,5.73
2022-08-26T13:46:41.561Z,5.00
2022-08-26T13:49:10.105Z,5.67
2022-08-26T13:51:38.791Z,5.47
2022-08-26T13:54:07.765Z,5.90
2022-08-26T13:56:36.248Z,6.50
2022-08-26T13:59:06.408Z,6.30
2022-08-26T14:01:36.147Z,5.80
2022-08-26T14:04:05.780Z,5.57
2022-08-26T14:06:34.122Z,4.73
2022-08-26T14:09:02.193Z,5.30
2022-08-26T14:11:34.774Z,5.80
2022-08-26T14:14:18.841Z,5.90
2022-08-26T14:16:56.062Z,4.80
2022-08-26T14:19:30.732Z,4.63
2022-08-26T14:22:00.960Z,5.30
2022-08-26T14:24:29.925Z,6.13
2022-08-26T14:26:58.574Z,5.67
2022-08-26T14:29:26.705Z,5.53
2022-08-26T14:31:57.467Z,6.63
2022-08-26T14:34:27.208Z,5.70
2022-08-26T14:36:56.658Z,5.27
2022-08-26T14:39:24.992Z,6.50
2022-08-26T14:41:56.744Z,5.90
2022-08-26T14:44:28.124Z,6.17
2022-08-26T14:46:57.092Z,6.20
2022-08-26T14:49:27.291Z,5.80
2022-08-26T14:51:56.916Z,5.93
2022-08-26T14:54:24.207Z,6.73
2022-08-26T14:56:54.954Z,6.10
2022-08-26T14:59:25.449Z,5.77
2022-08-26T15:01:54.431Z,8.53
2022-08-26T15:04:23.762Z,6.17
2022-08-26T15:06:52.637Z,7.17
2022-08-26T15:09:22.370Z,6.17
2022-08-26T15:11:51.452Z,5.70
2022-08-26T15:14:20.576Z,4.90
2022-08-26T15:16:49.527Z,5.20
2022-08-26T15:19:18.549Z,5.40
2022-08-26T15:21:47.374Z,6.13
2022-08-26T15:24:18.531Z,7.17
2022-08-26T15:26:48.345Z,5.50
2022-08-26T15:29:16.859Z,5.47
2022-08-26T15:31:45.045Z,5.63
2022-08-26T15:34:16.814Z,6.17
2022-08-26T15:36:46.858Z,5.30
2022-08-26T15:39:17.647Z,5.83
2022-08-26T15:41:47.888Z,5.23
2022-08-26T15:44:19.708Z,5.00
2022-08-26T15:46:49.871Z,6.10
2022-08-26T15:49:18.474Z,6.33
2022-08-26T15:51:48.203Z,6.30
2022-08-26T15:54:19.566Z,5.50
2022-08-26T15:56:51.664Z,5.40
2022-08-26T15:59:20.785Z,5.30
2022-08-26T16:01:49.018Z,5.57
2022-08-26T16:04:18.558Z,5.50
2022-08-26T16:06:50.137Z,5.13
2022-08-26T16:09:19.049Z,6.47
2022-08-26T16:11:48.657Z,5.80
2022-08-26T16:14:16.866Z,6.50
2022-08-26T16:16:45.036Z,6.13
2022-08-26T16:19:13.134Z,8.17
2022-08-26T16:21:42.844Z,6.30
2022-08-26T16:24:11.959Z,5.87
2022-08-26T16:26:41.732Z,6.87
2022-08-26T16:29:14.079Z,6.63
2022-08-26T16:31:42.667Z,6.13
2022-08-26T16:34:11.161Z,7.20
2022-08-26T16:36:40.310Z,7.30
2022-08-26T16:39:09.593Z,7.20
2022-08-26T16:41:37.901Z,7.80
2022-08-26T16:44:07.527Z,7.13
2022-08-26T16:46:38.875Z,7.50
2022-08-26T16:49:07.129Z,7.13
2022-08-26T16:51:38.100Z,8.30
2022-08-26T16:54:08.705Z,8.07
2022-08-26T16:56:38.091Z,8.30
2022-08-26T16:59:08.037Z,7.13
2022-08-26T17:01:37.732Z,7.20
2022-08-26T17:04:05.978Z,7.20
2022-08-26T17:06:34.161Z,7.90
2022-08-26T17:09:02.318Z,7.60
2022-08-26T17:11:30.553Z,8.03
2022-08-26T17:13:58.626Z,8.80
2022-08-26T17:16:27.450Z,7.33
2022-08-26T17:18:57.794Z,8.20
2022-08-26T17:21:27.960Z,8.00
2022-08-26T17:23:56.325Z,8.07
2022-08-26T17:26:24.675Z,9.93
2022-08-26T17:28:52.808Z,7.20
2022-08-26T17:31:21.935Z,8.27
2022-08-26T17:33:54.022Z,7.73
2022-08-26T17:36:27.459Z,10.00
2022-08-26T17:38:57.365Z,8.57
2022-08-26T17:41:26.354Z,7.60
2022-08-26T17:43:54.579Z,7.47
2022-08-26T17:46:23.258Z,7.93
2022-08-26T17:48:51.601Z,7.13
2022-08-26T17:51:20.860Z,6.77
2022-08-26T17:53:51.563Z,9.07
2022-08-26T17:56:24.131Z,7.27
2022-08-26T17:58:53.312Z,7.03
2022-08-26T18:01:22.220Z,6.10
2022-08-26T18:03:51.037Z,6.67
2022-08-26T18:06:20.684Z,7.80
2022-08-26T18:08:50.146Z,7.60
2022-08-26T18:11:19.940Z,7.87
2022-08-26T18:13:48.170Z,7.70
2022-08-26T18:16:18.705Z,7.77
2022-08-26T18:18:47.844Z,10.40
2022-08-26T18:21:19.232Z,8.37
2022-08-26T18:23:48.255Z,9.50
2022-08-26T18:26:23.531Z,11.80
2022-08-26T18:28:51.935Z,12.43
2022-08-26T18:31:20.779Z,11.47
2022-08-26T18:33:48.961Z,11.57
2022-08-26T18:36:19.133Z,11.93
2022-08-26T18:38:47.695Z,11.80
2022-08-26T18:41:21.687Z,11.93
2022-08-26T18:43:50.872Z,11.80
2022-08-26T18:46:22.238Z,11.53
2022-08-26T18:48:50.842Z,9.20
2022-08-26T18:51:21.859Z,10.47
2022-08-26T18:53:50.707Z,12.30
2022-08-26T18:56:20.471Z,11.90
2022-08-26T18:58:48.852Z,11.20
2022-08-26T19:01:18.029Z,10.90
2022-08-26T19:03:47.317Z,9.33
2022-08-26T19:06:17.114Z,12.10
2022-08-26T19:08:46.103Z,13.67
2022-08-26T19:11:31.578Z,11.53
2022-08-26T19:14:01.591Z,11.60
2022-08-26T19:16:31.032Z,12.53
2022-08-26T19:19:01.026Z,11.43
2022-08-26T19:21:30.444Z,11.40
2022-08-26T19:23:59.687Z,11.93
2022-08-26T19:26:31.343Z,11.63
2022-08-26T19:29:00.142Z,12.10
2022-08-26T19:31:28.387Z,12.10
2022-08-26T19:33:58.097Z,12.60
2022-08-26T19:36:27.390Z,11.07
2022-08-26T19:38:56.771Z,11.70
2022-08-26T19:41:37.297Z,14.57
2022-08-26T19:44:10.572Z,16.00
2022-08-26T19:49:07.459Z,12.63
2022-08-26T19:51:37.849Z,11.33
2022-08-26T19:54:06.231Z,11.20
2022-08-26T19:56:34.965Z,11.27
2022-08-26T19:59:03.092Z,11.57
2022-08-26T20:01:32.652Z,11.33
2022-08-26T20:04:00.820Z,12.97
2022-08-26T20:06:29.144Z,11.80
2022-08-26T20:08:57.266Z,12.37
2022-08-26T20:11:25.660Z,13.00
2022-08-26T20:13:54.050Z,12.70
2022-08-26T20:16:22.279Z,12.20
2022-08-26T20:19:09.416Z,12.60
2022-08-26T20:21:40.243Z,12.20
2022-08-26T20:24:10.907Z,12.60
2022-08-26T20:26:41.346Z,11.03
2022-08-26T20:29:11.377Z,10.20
2022-08-26T20:31:40.161Z,12.37
2022-08-26T20:34:09.716Z,11.30
2022-08-26T20:36:39.621Z,10.37
2022-08-26T20:39:07.763Z,11.07
2022-08-26T20:41:36.103Z,8.63
2022-08-26T20:44:05.031Z,10.07
2022-08-26T20:46:34.610Z,9.20
2022-08-26T20:49:03.433Z,9.33
2022-08-26T20:51:37.375Z,10.30
2022-08-26T20:54:07.010Z,9.10
2022-08-26T20:56:35.249Z,9.30
2022-08-26T20:59:03.901Z,9.17
2022-08-26T21:01:34.843Z,8.70
2022-08-26T21:04:05.563Z,8.93
2022-08-26T21:06:35.716Z,8.20
2022-08-26T21:09:06.214Z,8.30
2022-08-26T21:11:34.818Z,9.00
2022-08-26T21:14:16.138Z,7.97
2022-08-26T21:16:46.755Z,8.57
2022-08-26T21:19:17.973Z,8.10
2022-08-26T21:21:48.590Z,6.63
2022-08-26T21:24:16.904Z,6.80
2022-08-26T21:26:45.018Z,7.10
2022-08-26T21:29:13.754Z,7.27
2022-08-26T21:31:46.047Z,6.50
2022-08-26T21:34:15.223Z,7.17
2022-08-26T21:36:43.323Z,6.97
2022-08-26T21:39:13.048Z,7.30
2022-08-26T21:41:42.225Z,7.00
2022-08-26T21:44:11.475Z,6.77
2022-08-26T21:46:40.122Z,7.40
2022-08-26T21:49:10.279Z,8.13
2022-08-26T21:51:40.283Z,9.03
2022-08-26T21:54:11.236Z,8.20
2022-08-26T21:56:44.194Z,8.53
2022-08-26T21:59:13.422Z,6.90
2022-08-26T22:01:41.851Z,6.97
2022-08-26T22:04:11.104Z,7.90
2022-08-26T22:06:44.171Z,7.83
2022-08-26T22:09:13.398Z,7.70
2022-08-26T22:11:43.406Z,7.77
2022-08-26T22:14:12.760Z,7.37
2022-08-26T22:16:40.957Z,8.50
2022-08-26T22:19:17.521Z,7.83
2022-08-26T22:21:46.340Z,8.10
2022-08-26T22:24:14.420Z,7.33
2022-08-26T22:26:43.947Z,6.83
2022-08-26T22:29:12.234Z,7.03
2022-08-26T22:31:40.485Z,7.90
2022-08-26T22:34:10.683Z,8.13
2022-08-26T22:36:43.776Z,7.20
2022-08-26T22:39:13.398Z,8.33
2022-08-26T22:41:43.519Z,8.20
2022-08-26T22:44:12.736Z,7.70
2022-08-26T22:46:42.811Z,7.80
2022-08-26T22:49:15.763Z,9.13
2022-08-26T22:51:44.429Z,8.60
2022-08-26T22:54:12.568Z,7.80
2022-08-26T22:56:41.324Z,8.57
2022-08-26T22:59:11.915Z,9.17
2022-08-26T23:01:43.452Z,8.40
2022-08-26T23:04:12.089Z,8.23
2022-08-26T23:06:41.924Z,8.47
2022-08-26T23:09:10.824Z,7.37
2022-08-26T23:11:42.550Z,8.30
2022-08-26T23:14:12.536Z,8.53
2022-08-26T23:16:41.979Z,8.10
2022-08-26T23:19:12.020Z,8.67
2022-08-26T23:21:40.599Z,8.40
2022-08-26T23:26:55.005Z,8.53
2022-08-26T23:29:24.613Z,8.77
2022-08-26T23:31:52.967Z,8.13
2022-08-26T23:34:38.646Z,8.50
2022-08-26T23:37:07.753Z,8.60
2022-08-26T23:39:37.181Z,8.57
2022-08-26T23:42:06.582Z,7.90
2022-08-26T23:44:36.138Z,7.73
2022-08-26T23:47:04.899Z,6.37
2022-08-26T23:49:33.572Z,8.00
2022-08-26T23:52:19.205Z,7.70
2022-08-26T23:54:48.667Z,7.20
2022-08-26T23:57:17.883Z,7.43
2022-08-26T23:59:48.523Z,7.20
